Time;durP1;ratioP1;P1;durP2;ratioP2;P2;SDS_P1;SDS_P2;PMS_P1;PMS_P2;Temp;Humidity;BMP_temperature;BMP_pressure;BME280_temperature;BME280_humidity;BME280_pressure;Samples;Min_cycle;Max_cycle;Signal;HPM_P1;HPM_P2
2024/02/06 00:01:29;;;;;;;6.15;4.15;;;9.00;99.90;;;;;;6281386;22;20019;-89
2024/02/06 00:03:55;;;;;;;9.75;5.13;;;9.00;99.90;;;;;;6307574;22;20219;-89
2024/02/06 00:06:21;;;;;;;12.10;6.75;;;9.00;99.90;;;;;;6307362;22;20030;-87
2024/02/06 00:08:47;;;;;;;10.60;5.53;;;9.10;99.90;;;;;;6307743;22;20018;-88
2024/02/06 00:11:13;;;;;;;6.35;4.43;;;9.10;99.90;;;;;;6281479;22;19995;-88
2024/02/06 00:13:40;;;;;;;9.18;5.50;;;9.10;99.90;;;;;;6308128;22;20066;-89
2024/02/06 00:16:13;;;;;;;9.70;5.55;;;9.10;99.90;;;;;;6307811;22;20018;-87
2024/02/06 00:18:39;;;;;;;6.75;4.35;;;9.10;99.90;;;;;;6280996;22;20010;-90
2024/02/06 00:21:05;;;;;;;7.00;4.07;;;9.10;99.90;;;;;;6281545;22;20007;-88
2024/02/06 00:23:31;;;;;;;5.57;3.50;;;9.00;99.90;;;;;;6333330;22;20018;-88
2024/02/06 00:25:57;;;;;;;6.53;4.80;;;9.10;99.90;;;;;;6282080;22;20015;-88
2024/02/06 00:28:24;;;;;;;9.13;3.97;;;9.10;99.90;;;;;;6334625;22;20010;-88
2024/02/06 00:30:49;;;;;;;7.50;5.50;;;9.10;99.90;;;;;;6306759;22;20007;-88
2024/02/06 00:33:15;;;;;;;7.88;4.22;;;9.10;99.90;;;;;;6281271;22;20067;-88
2024/02/06 00:35:41;;;;;;;7.55;4.35;;;9.10;99.90;;;;;;6281762;22;19999;-89
2024/02/06 00:38:07;;;;;;;6.63;4.60;;;9.10;99.90;;;;;;6280751;22;20010;-88
2024/02/06 00:40:33;;;;;;;7.65;5.07;;;9.10;99.90;;;;;;6281389;22;20324;-87
2024/02/06 00:42:59;;;;;;;9.45;4.65;;;9.10;99.90;;;;;;6281428;22;20013;-86
2024/02/06 00:45:24;;;;;;;9.13;5.18;;;9.10;99.90;;;;;;6281576;22;20493;-87
2024/02/06 00:47:51;;;;;;;11.10;6.18;;;9.10;99.90;;;;;;6308736;22;20094;-88
2024/02/06 00:50:17;;;;;;;8.75;5.88;;;9.20;99.90;;;;;;6283861;22;20427;-86
2024/02/06 00:52:43;;;;;;;11.43;5.75;;;9.10;99.90;;;;;;6283208;22;20090;-87
2024/02/06 00:55:09;;;;;;;7.50;4.30;;;9.10;99.90;;;;;;6309476;22;20078;-87
2024/02/06 00:57:35;;;;;;;12.40;5.53;;;9.20;99.90;;;;;;6283061;22;20007;-87
2024/02/06 01:00:01;;;;;;;10.90;6.93;;;9.20;99.90;;;;;;6309543;22;20022;-89
2024/02/06 01:02:26;;;;;;;14.93;7.15;;;9.30;99.90;;;;;;6308575;22;20009;-88
2024/02/06 01:04:53;;;;;;;10.40;7.00;;;9.20;99.90;;;;;;6283582;22;20006;-87
2024/02/06 01:07:19;;;;;;;14.32;7.15;;;9.30;99.90;;;;;;6283001;22;20072;-87
2024/02/06 01:09:45;;;;;;;9.57;6.32;;;9.30;99.90;;;;;;6336499;22;20004;-87
2024/02/06 01:12:11;;;;;;;11.02;5.90;;;9.30;99.90;;;;;;6308987;22;20018;-88
2024/02/06 01:14:37;;;;;;;10.07;5.50;;;9.30;99.90;;;;;;6309092;22;20003;-87
2024/02/06 01:17:04;;;;;;;12.00;5.75;;;9.30;99.90;;;;;;6308796;22;20015;-87
2024/02/06 01:19:30;;;;;;;10.13;5.65;;;9.20;99.90;;;;;;6309027;22;20082;-87
2024/02/06 01:21:56;;;;;;;8.43;4.97;;;9.30;99.90;;;;;;6309055;22;20415;-87
2024/02/06 01:24:21;;;;;;;11.45;6.30;;;9.20;99.90;;;;;;6282985;22;20260;-85
2024/02/06 01:26:48;;;;;;;10.50;6.18;;;9.30;99.90;;;;;;6309204;22;20011;-86
2024/02/06 01:29:14;;;;;;;12.00;6.38;;;9.40;99.90;;;;;;6282704;22;20013;-87
2024/02/06 01:31:39;;;;;;;11.57;6.07;;;9.40;99.90;;;;;;6282945;22;20018;-86
2024/02/06 01:34:06;;;;;;;11.55;5.88;;;9.40;99.90;;;;;;6283141;22;20480;-86
2024/02/06 01:36:34;;;;;;;8.68;5.80;;;9.40;99.90;;;;;;6283446;22;20376;-86
2024/02/06 01:39:00;;;;;;;11.90;6.50;;;9.40;99.90;;;;;;6308682;22;20090;-86
2024/02/06 01:41:26;;;;;;;8.93;5.68;;;9.40;99.90;;;;;;6334863;22;20037;-86
2024/02/06 01:43:52;;;;;;;12.07;5.93;;;9.40;99.90;;;;;;6282560;22;20002;-88
2024/02/06 01:46:19;;;;;;;14.55;5.85;;;9.40;99.90;;;;;;6308297;22;20010;-87
2024/02/06 01:48:45;;;;;;;10.00;4.90;;;9.40;99.90;;;;;;6308771;22;20007;-87
2024/02/06 01:51:11;;;;;;;9.15;5.65;;;9.40;99.90;;;;;;6308463;22;20052;-86
2024/02/06 01:53:37;;;;;;;8.00;5.38;;;9.50;99.90;;;;;;6334642;22;20451;-86
2024/02/06 01:56:04;;;;;;;9.95;4.22;;;9.40;99.90;;;;;;6283219;22;20010;-87
2024/02/06 01:58:29;;;;;;;15.82;6.80;;;9.40;99.90;;;;;;6308058;22;20003;-87
2024/02/06 02:00:55;;;;;;;7.03;4.40;;;9.40;99.90;;;;;;6283145;22;20017;-88
2024/02/06 02:03:22;;;;;;;8.45;3.90;;;9.40;99.90;;;;;;6308544;22;20114;-86
2024/02/06 02:05:49;;;;;;;10.32;5.07;;;9.50;99.90;;;;;;6282766;22;20535;-86
2024/02/06 02:08:16;;;;;;;11.50;6.13;;;9.50;99.90;;;;;;6282124;22;20013;-86
2024/02/06 02:10:42;;;;;;;9.45;4.72;;;9.50;99.90;;;;;;6282347;22;20007;-86
2024/02/06 02:13:08;;;;;;;10.98;5.25;;;9.50;99.90;;;;;;6282391;22;20019;-86
2024/02/06 02:15:33;;;;;;;8.43;4.38;;;9.50;99.90;;;;;;6282409;22;20038;-87
2024/02/06 02:17:59;;;;;;;12.02;4.43;;;9.50;99.90;;;;;;6282447;22;20011;-88
2024/02/06 02:20:25;;;;;;;7.72;3.75;;;9.50;99.90;;;;;;6282620;22;20003;-86
2024/02/06 02:22:51;;;;;;;6.80;3.67;;;9.50;99.90;;;;;;6282856;22;20007;-87
2024/02/06 02:25:18;;;;;;;10.55;3.63;;;9.50;99.90;;;;;;6282140;22;20007;-87
2024/02/06 02:27:44;;;;;;;7.93;4.65;;;9.40;99.90;;;;;;6333744;22;20025;-86
2024/02/06 02:30:11;;;;;;;8.85;4.18;;;9.50;99.90;;;;;;6282601;22;20007;-86
2024/02/06 02:32:37;;;;;;;10.40;3.85;;;9.50;99.90;;;;;;6308343;22;20002;-86
2024/02/06 02:35:03;;;;;;;14.13;3.70;;;9.50;99.90;;;;;;6308460;22;20339;-86
2024/02/06 02:37:29;;;;;;;12.68;4.63;;;9.60;99.90;;;;;;6307594;22;20095;-86
2024/02/06 02:39:55;;;;;;;9.82;4.30;;;9.60;99.90;;;;;;6282267;22;20043;-87
2024/02/06 02:42:20;;;;;;;8.73;2.97;;;9.50;99.90;;;;;;6282384;22;20014;-87
2024/02/06 02:44:46;;;;;;;6.20;2.30;;;9.50;99.90;;;;;;6307827;22;20340;-87
2024/02/06 02:47:12;;;;;;;10.23;2.92;;;9.50;99.90;;;;;;6282144;22;20463;-88
2024/02/06 02:49:37;;;;;;;8.50;2.60;;;9.50;99.90;;;;;;6308244;22;20010;-86
2024/02/06 02:52:04;;;;;;;10.57;3.17;;;9.50;99.90;;;;;;6307903;22;20005;-86
2024/02/06 02:54:29;;;;;;;6.78;3.25;;;9.50;99.90;;;;;;6307659;22;20480;-86
2024/02/06 02:56:56;;;;;;;4.13;1.90;;;9.60;99.90;;;;;;6282201;22;20006;-86
2024/02/06 02:59:22;;;;;;;10.32;3.70;;;9.60;99.90;;;;;;6282111;22;20072;-86
2024/02/06 03:01:48;;;;;;;9.73;3.20;;;9.60;99.90;;;;;;6308018;22;20427;-84
2024/02/06 03:04:13;;;;;;;11.15;3.30;;;9.70;99.90;;;;;;6308276;22;20387;-85
2024/02/06 03:06:39;;;;;;;7.95;3.08;;;9.70;99.90;;;;;;6308596;22;20026;-85
2024/02/06 03:09:05;;;;;;;10.05;3.13;;;9.60;99.90;;;;;;6307376;22;20095;-86
2024/02/06 03:11:31;;;;;;;6.53;2.20;;;9.70;99.90;;;;;;6307708;22;20006;-85
2024/02/06 03:13:56;;;;;;;5.95;2.38;;;9.70;99.90;;;;;;6282414;22;20007;-85
2024/02/06 03:16:22;;;;;;;8.93;2.58;;;9.70;99.90;;;;;;6281944;22;20296;-87
2024/02/06 03:18:48;;;;;;;7.65;2.33;;;9.70;99.90;;;;;;6335880;22;20013;-86
2024/02/06 03:21:13;;;;;;;10.13;2.97;;;9.60;99.90;;;;;;6282141;22;20105;-87
2024/02/06 03:23:39;;;;;;;10.90;2.70;;;9.70;99.90;;;;;;6281788;22;20063;-85
2024/02/06 03:26:05;;;;;;;9.63;4.10;;;9.70;99.90;;;;;;6307700;22;20037;-86
2024/02/06 03:28:31;;;;;;;14.32;3.95;;;9.70;99.90;;;;;;6307142;22;20372;-86
2024/02/06 03:30:57;;;;;;;8.43;2.65;;;9.70;99.90;;;;;;6307557;22;20006;-85
2024/02/06 03:33:23;;;;;;;7.53;2.85;;;9.70;99.90;;;;;;6307520;22;20086;-85
2024/02/06 03:35:49;;;;;;;6.05;2.47;;;9.70;99.90;;;;;;6308007;22;20003;-86
2024/02/06 03:38:18;;;;;;;9.45;2.78;;;9.70;99.90;;;;;;6281374;22;20017;-85
2024/02/06 03:40:43;;;;;;;9.68;3.88;;;9.80;99.90;;;;;;6333772;22;20030;-85
2024/02/06 03:43:09;;;;;;;8.73;4.15;;;9.70;99.90;;;;;;6281610;22;20018;-85
2024/02/06 03:45:35;;;;;;;8.90;3.95;;;9.70;99.90;;;;;;6281762;22;20537;-86
2024/02/06 03:48:00;;;;;;;10.88;4.07;;;9.60;99.90;;;;;;6335360;22;20103;-85
2024/02/06 03:50:26;;;;;;;10.27;3.55;;;9.60;99.90;;;;;;6334659;22;20323;-85
2024/02/06 03:52:51;;;;;;;6.07;3.35;;;9.60;99.90;;;;;;6281543;22;20010;-86
2024/02/06 03:55:17;;;;;;;11.07;3.55;;;9.50;99.90;;;;;;6281528;22;20003;-85
2024/02/06 03:57:43;;;;;;;8.70;3.33;;;9.60;99.90;;;;;;6307148;22;20006;-86
2024/02/06 04:00:09;;;;;;;5.47;3.38;;;9.60;99.90;;;;;;6335013;22;20007;-86
2024/02/06 04:02:35;;;;;;;5.85;3.03;;;9.60;99.90;;;;;;6280927;22;20010;-86
2024/02/06 04:05:01;;;;;;;7.03;3.35;;;9.50;99.90;;;;;;6307653;22;20007;-86
2024/02/06 04:07:27;;;;;;;9.10;4.28;;;9.50;99.90;;;;;;6307526;22;20010;-86
2024/02/06 04:09:53;;;;;;;6.22;2.95;;;9.50;99.90;;;;;;6306638;22;20026;-88
2024/02/06 04:12:19;;;;;;;7.22;3.55;;;9.40;99.90;;;;;;6307017;22;20014;-87
2024/02/06 04:14:44;;;;;;;4.90;2.97;;;9.40;99.90;;;;;;6307924;22;19999;-89
2024/02/06 04:17:10;;;;;;;8.38;4.45;;;9.40;99.90;;;;;;6307459;22;20066;-87
2024/02/06 04:19:36;;;;;;;6.20;3.08;;;9.50;99.90;;;;;;6307689;22;20029;-91
2024/02/06 04:22:02;;;;;;;12.63;4.80;;;9.40;99.90;;;;;;6283484;22;20006;-89
2024/02/06 04:24:36;;;;;;;11.13;4.68;;;9.50;99.90;;;;;;6308965;22;20003;-90
2024/02/06 04:27:02;;;;;;;11.07;5.63;;;9.50;99.90;;;;;;6283526;22;20098;-88
2024/02/06 04:29:28;;;;;;;7.30;4.82;;;9.50;99.90;;;;;;6283702;22;20391;-89
2024/02/06 04:31:54;;;;;;;9.38;4.22;;;9.50;99.90;;;;;;6283988;22;20015;-89
2024/02/06 04:34:20;;;;;;;10.30;3.28;;;9.50;99.90;;;;;;6283527;22;20309;-90
2024/02/06 04:36:45;;;;;;;10.20;4.25;;;9.50;99.90;;;;;;6284072;22;20260;-88
2024/02/06 04:39:11;;;;;;;8.60;5.07;;;9.50;99.90;;;;;;6308453;22;19999;-88
2024/02/06 04:41:37;;;;;;;7.93;3.63;;;9.50;99.90;;;;;;6283973;22;20038;-88
2024/02/06 04:44:02;;;;;;;10.68;3.83;;;9.50;99.90;;;;;;6309412;22;19999;-87
2024/02/06 04:46:28;;;;;;;10.07;3.85;;;9.50;99.90;;;;;;6309183;22;20011;-87
2024/02/06 04:48:54;;;;;;;9.85;4.22;;;9.50;99.90;;;;;;6308773;22;20003;-87
2024/02/06 04:51:20;;;;;;;8.57;4.80;;;9.50;99.90;;;;;;6308979;22;20078;-86
2024/02/06 04:53:46;;;;;;;9.73;4.10;;;9.50;99.90;;;;;;6283417;22;20011;-87
2024/02/06 04:56:14;;;;;;;9.07;4.07;;;9.50;99.90;;;;;;6308956;22;20003;-87
2024/02/06 04:58:40;;;;;;;11.30;4.28;;;9.50;99.90;;;;;;6309165;22;20003;-87
2024/02/06 05:01:06;;;;;;;5.88;3.20;;;9.50;99.90;;;;;;6283328;22;20136;-88
2024/02/06 05:03:32;;;;;;;10.85;4.78;;;9.50;99.90;;;;;;6283421;22;20027;-87
2024/02/06 05:05:57;;;;;;;9.98;4.38;;;9.50;99.90;;;;;;6308733;22;20458;-86
2024/02/06 05:08:23;;;;;;;13.77;4.03;;;9.50;99.90;;;;;;6308818;22;20033;-88
2024/02/06 05:10:48;;;;;;;9.70;3.42;;;9.50;99.90;;;;;;6283735;22;20283;-87
2024/02/06 05:13:16;;;;;;;9.93;4.85;;;9.50;99.90;;;;;;6283233;22;20015;-88
2024/02/06 05:15:42;;;;;;;7.20;3.30;;;9.60;99.90;;;;;;6308906;22;20063;-86
2024/02/06 05:18:07;;;;;;;10.52;3.38;;;9.50;99.90;;;;;;6282684;22;20021;-87
2024/02/06 05:20:33;;;;;;;9.73;4.05;;;9.50;99.90;;;;;;6282551;22;20014;-88
2024/02/06 05:22:59;;;;;;;6.68;4.18;;;9.50;99.90;;;;;;6306398;22;20015;-87
2024/02/06 05:25:24;;;;;;;7.30;3.20;;;9.60;99.90;;;;;;6335685;22;20002;-86
2024/02/06 05:27:50;;;;;;;9.70;3.65;;;9.50;99.90;;;;;;6336187;22;20032;-87
2024/02/06 05:30:16;;;;;;;10.35;3.90;;;9.50;99.90;;;;;;6282276;22;20086;-87
2024/02/06 05:32:41;;;;;;;13.77;5.35;;;9.50;99.90;;;;;;6282351;22;20014;-87
2024/02/06 05:35:07;;;;;;;13.90;5.60;;;9.60;99.90;;;;;;6308902;22;20003;-87
2024/02/06 05:37:33;;;;;;;8.13;4.35;;;9.60;99.90;;;;;;6307949;22;20013;-90
2024/02/06 05:39:59;;;;;;;6.80;4.47;;;9.60;99.90;;;;;;6282718;22;19999;-88
2024/02/06 05:42:24;;;;;;;10.13;4.88;;;9.60;99.90;;;;;;6335722;22;20011;-88
2024/02/06 05:44:50;;;;;;;11.13;5.05;;;9.50;99.90;;;;;;6282551;22;20038;-88
2024/02/06 05:47:18;;;;;;;15.27;5.43;;;9.50;99.90;;;;;;6281526;22;20456;-87
2024/02/06 05:49:44;;;;;;;9.02;4.32;;;9.50;99.90;;;;;;6307008;22;20006;-87
2024/02/06 05:52:11;;;;;;;10.95;4.63;;;9.50;99.90;;;;;;6306380;22;20037;-89
2024/02/06 05:54:37;;;;;;;14.10;4.90;;;9.50;99.90;;;;;;6281438;22;20034;-87
2024/02/06 05:57:03;;;;;;;6.57;3.67;;;9.50;99.90;;;;;;6334356;22;20010;-87
2024/02/06 05:59:29;;;;;;;9.68;4.97;;;9.40;99.90;;;;;;6281341;22;20094;-88
2024/02/06 06:01:55;;;;;;;7.63;4.30;;;9.40;99.90;;;;;;6306730;22;20053;-87
2024/02/06 06:04:21;;;;;;;5.88;3.38;;;9.40;99.90;;;;;;6306636;22;20011;-87
2024/02/06 06:06:47;;;;;;;7.38;3.50;;;9.40;99.90;;;;;;6280765;22;20025;-86
2024/02/06 06:09:13;;;;;;;7.95;2.80;;;9.40;99.90;;;;;;6306776;22;20010;-87
2024/02/06 06:11:38;;;;;;;5.10;2.38;;;9.40;99.90;;;;;;6306599;22;20013;-88
2024/02/06 06:14:04;;;;;;;6.75;3.38;;;9.40;99.90;;;;;;6306988;22;20010;-87
2024/02/06 06:16:30;;;;;;;5.28;2.88;;;9.40;99.90;;;;;;6307173;22;20033;-87
2024/02/06 06:18:55;;;;;;;6.50;2.83;;;9.40;99.90;;;;;;6306643;22;20014;-88
2024/02/06 06:21:21;;;;;;;8.35;4.55;;;9.40;99.90;;;;;;6306659;22;20439;-86
2024/02/06 06:23:47;;;;;;;11.77;4.03;;;9.40;99.90;;;;;;6307053;22;20332;-90
2024/02/06 06:26:12;;;;;;;8.30;4.35;;;9.40;99.90;;;;;;6306582;22;20006;-89
2024/02/06 06:28:38;;;;;;;7.35;3.58;;;9.50;99.90;;;;;;6306955;22;20011;-87
2024/02/06 06:31:05;;;;;;;11.93;4.88;;;9.50;99.90;;;;;;6306905;22;20007;-87
2024/02/06 06:33:31;;;;;;;6.55;4.00;;;9.50;99.90;;;;;;6306099;22;20011;-86
2024/02/06 06:35:56;;;;;;;8.05;3.45;;;9.50;99.90;;;;;;6277998;22;20010;-87
2024/02/06 06:38:22;;;;;;;5.78;2.92;;;9.50;99.90;;;;;;6279774;22;20007;-87
2024/02/06 06:40:48;;;;;;;6.55;3.85;;;9.50;99.90;;;;;;6279905;22;20011;-87
2024/02/06 06:43:14;;;;;;;9.45;4.20;;;9.50;99.90;;;;;;6284969;22;20003;-85
2024/02/06 06:45:40;;;;;;;7.75;4.05;;;9.50;99.90;;;;;;6227945;22;20065;-86
2024/02/06 06:48:07;;;;;;;10.18;4.88;;;9.50;99.90;;;;;;6224821;22;20059;-88
2024/02/06 06:50:32;;;;;;;12.45;4.90;;;9.50;99.90;;;;;;6285569;22;20011;-87
2024/02/06 06:52:59;;;;;;;10.00;4.43;;;9.50;99.90;;;;;;6290061;22;20007;-88
2024/02/06 06:55:24;;;;;;;10.32;3.80;;;9.50;99.90;;;;;;6262284;22;20466;-91
2024/02/06 06:57:50;;;;;;;9.65;4.55;;;9.50;99.90;;;;;;6236205;22;20007;-87
2024/02/06 07:00:17;;;;;;;7.68;3.67;;;9.60;99.90;;;;;;6236875;22;20010;-91
2024/02/06 07:02:43;;;;;;;6.75;4.32;;;9.50;99.90;;;;;;6262733;22;20011;-87
2024/02/06 07:05:10;;;;;;;12.13;5.20;;;9.60;99.90;;;;;;6235256;22;20015;-86
2024/02/06 07:07:36;;;;;;;9.48;3.00;;;9.60;99.90;;;;;;6261581;22;20097;-87
2024/02/06 07:10:02;;;;;;;9.30;4.00;;;9.60;99.90;;;;;;6261788;22;20003;-88
2024/02/06 07:12:27;;;;;;;8.23;2.70;;;9.60;99.90;;;;;;6235310;22;20061;-88
2024/02/06 07:14:53;;;;;;;6.63;2.13;;;9.60;99.90;;;;;;6260700;22;20432;-88
2024/02/06 07:17:19;;;;;;;10.05;3.03;;;9.50;99.90;;;;;;6261291;22;20060;-89
2024/02/06 07:19:45;;;;;;;6.93;2.33;;;9.60;99.90;;;;;;6289249;22;20610;-90
2024/02/06 07:22:10;;;;;;;7.93;2.70;;;9.60;99.90;;;;;;6287033;22;20095;-89
2024/02/06 07:24:36;;;;;;;8.48;3.25;;;9.60;99.90;;;;;;6261958;22;20584;-89
2024/02/06 07:27:02;;;;;;;7.25;3.33;;;9.60;99.90;;;;;;6288146;22;20019;-89
2024/02/06 07:29:27;;;;;;;10.43;3.15;;;9.50;99.90;;;;;;6236115;22;20011;-91
2024/02/06 07:31:53;;;;;;;6.15;1.85;;;9.60;99.90;;;;;;6287274;22;20080;-88
2024/02/06 07:34:19;;;;;;;6.68;2.90;;;9.60;99.90;;;;;;6288056;22;20526;-90
2024/02/06 07:36:45;;;;;;;6.03;2.22;;;9.50;99.90;;;;;;6261112;22;20011;-89
2024/02/06 07:39:11;;;;;;;7.38;2.72;;;9.50;99.90;;;;;;6287454;22;20074;-89
2024/02/06 07:41:38;;;;;;;8.10;2.80;;;9.60;99.90;;;;;;6259887;22;20022;-90
2024/02/06 07:44:04;;;;;;;9.80;3.45;;;9.60;99.90;;;;;;6236291;22;20007;-90
2024/02/06 07:46:30;;;;;;;9.55;2.70;;;9.60;99.90;;;;;;6245629;22;20467;-88
2024/02/06 07:48:56;;;;;;;11.90;3.63;;;9.60;99.90;;;;;;6260875;22;20015;-87
2024/02/06 07:51:25;;;;;;;11.40;3.47;;;9.60;99.90;;;;;;6260401;22;20382;-88
2024/02/06 07:53:51;;;;;;;10.65;4.07;;;9.60;99.90;;;;;;6261003;22;20007;-90
2024/02/06 07:56:20;;;;;;;9.52;3.50;;;9.70;99.90;;;;;;6234367;22;20018;-90
2024/02/06 07:58:48;;;;;;;5.32;2.92;;;9.60;99.90;;;;;;6261887;22;20578;-89
2024/02/06 08:01:15;;;;;;;9.18;3.45;;;9.60;99.90;;;;;;6234519;22;20064;-90
2024/02/06 08:03:51;;;;;;;6.18;2.60;;;9.60;99.90;;;;;;6259525;22;20003;-92
2024/02/06 08:06:20;;;;;;;12.45;3.58;;;9.60;99.90;;;;;;6272521;22;20440;-90
2024/02/06 08:08:46;;;;;;;7.70;3.20;;;9.70;99.90;;;;;;6246114;22;20007;-88
2024/02/06 08:11:14;;;;;;;6.47;2.55;;;9.60;99.90;;;;;;6246801;22;20025;-88
2024/02/06 08:13:43;;;;;;;8.35;2.83;;;9.70;99.90;;;;;;6247552;22;20042;-90
2024/02/06 08:16:10;;;;;;;11.75;2.97;;;9.70;99.90;;;;;;6247504;22;20018;-90
2024/02/06 08:18:36;;;;;;;10.50;3.75;;;9.70;99.90;;;;;;6272637;22;20605;-90
2024/02/06 08:21:02;;;;;;;7.55;1.83;;;9.70;99.90;;;;;;6272427;22;20034;-89
2024/02/06 08:23:28;;;;;;;10.27;3.65;;;9.70;99.90;;;;;;6300164;22;20010;-89
2024/02/06 08:25:53;;;;;;;9.73;3.40;;;9.70;99.90;;;;;;6246666;22;20045;-90
2024/02/06 08:28:19;;;;;;;9.43;2.72;;;9.70;99.90;;;;;;6246581;22;20012;-90
2024/02/06 08:30:47;;;;;;;12.15;3.08;;;9.70;99.90;;;;;;6247211;22;20007;-91
2024/02/06 08:33:14;;;;;;;11.55;3.30;;;9.70;99.90;;;;;;6272492;22;20007;-89
2024/02/06 08:35:40;;;;;;;9.20;3.53;;;9.80;99.90;;;;;;6272035;22;20019;-89
2024/02/06 08:38:07;;;;;;;8.07;3.35;;;9.70;99.90;;;;;;6273402;22;20007;-90
2024/02/06 08:40:33;;;;;;;9.98;3.33;;;9.80;99.90;;;;;;6247254;22;20368;-89
2024/02/06 08:42:58;;;;;;;7.18;2.13;;;9.80;99.90;;;;;;6272721;22;20332;-90
2024/02/06 08:45:24;;;;;;;7.82;3.25;;;9.90;99.90;;;;;;6299502;22;19999;-91
2024/02/06 08:47:50;;;;;;;8.68;2.28;;;9.90;99.90;;;;;;6226700;22;20026;-91
2024/02/06 08:50:16;;;;;;;9.18;2.95;;;9.90;99.90;;;;;;6240255;22;20000;-91
2024/02/06 08:52:42;;;;;;;12.02;4.05;;;9.80;99.90;;;;;;6217223;22;20035;-91
2024/02/06 08:55:09;;;;;;;10.93;3.40;;;9.90;99.90;;;;;;6243096;22;20110;-93
2024/02/06 08:57:36;;;;;;;18.02;3.97;;;9.90;99.90;;;;;;6216579;22;20023;-88
2024/02/06 09:00:11;;;;;;;9.88;3.42;;;9.90;99.90;;;;;;6217140;22;20003;-91
2024/02/06 09:02:37;;;;;;;17.67;3.83;;;9.90;99.90;;;;;;6242655;22;20445;-89
2024/02/06 09:05:03;;;;;;;8.18;2.75;;;10.00;99.90;;;;;;6216330;22;20051;-88
2024/02/06 09:07:29;;;;;;;7.13;2.40;;;9.90;99.90;;;;;;6242923;22;20437;-91
2024/02/06 09:09:57;;;;;;;8.32;2.80;;;10.00;99.90;;;;;;6244470;22;20336;-90
2024/02/06 09:12:26;;;;;;;9.40;2.55;;;10.00;99.90;;;;;;6218585;22;20015;-89
2024/02/06 09:14:52;;;;;;;9.38;2.55;;;10.00;99.90;;;;;;6218947;22;20026;-89
2024/02/06 09:17:19;;;;;;;13.13;3.22;;;10.00;99.90;;;;;;6218242;22;20444;-90
2024/02/06 09:19:45;;;;;;;12.05;2.95;;;10.00;99.90;;;;;;6244467;22;20000;-90
2024/02/06 09:22:11;;;;;;;14.32;2.90;;;10.10;99.90;;;;;;6244660;22;20007;-91
2024/02/06 09:24:37;;;;;;;8.73;2.10;;;10.10;99.90;;;;;;6219239;22;20007;-91
2024/02/06 09:27:03;;;;;;;5.60;1.98;;;10.10;99.90;;;;;;6219599;22;20126;-90
2024/02/06 09:29:28;;;;;;;7.97;2.08;;;10.10;99.90;;;;;;6218502;22;20008;-90
2024/02/06 09:31:54;;;;;;;10.15;1.52;;;10.20;99.90;;;;;;6244255;22;20035;-90
2024/02/06 09:34:20;;;;;;;9.10;1.65;;;10.20;99.90;;;;;;6244949;22;20008;-93
2024/02/06 09:36:46;;;;;;;3.67;1.35;;;10.20;99.90;;;;;;6219105;22;20436;-90
2024/02/06 09:39:12;;;;;;;6.25;1.48;;;10.20;99.90;;;;;;6218471;22;20126;-89
2024/02/06 09:41:40;;;;;;;8.80;1.45;;;10.20;99.90;;;;;;6243376;22;20061;-88
2024/02/06 09:44:06;;;;;;;9.15;2.05;;;10.30;99.90;;;;;;6219799;22;20373;-88
2024/02/06 09:46:32;;;;;;;4.80;1.15;;;10.20;99.90;;;;;;6217677;22;20054;-91
2024/02/06 09:48:58;;;;;;;5.07;1.15;;;10.30;99.90;;;;;;6240270;22;20016;-91
2024/02/06 09:51:25;;;;;;;9.15;1.42;;;10.30;99.90;;;;;;6268528;22;20026;-90
2024/02/06 09:53:58;;;;;;;7.72;1.50;;;10.40;99.90;;;;;;6218243;22;20031;-92
2024/02/06 09:56:30;;;;;;;9.55;1.85;;;10.40;99.90;;;;;;6218490;22;20314;-92
2024/02/06 09:59:05;;;;;;;12.38;2.10;;;10.40;99.90;;;;;;6244591;22;20062;-94
2024/02/06 10:01:35;;;;;;;9.57;2.05;;;10.50;99.90;;;;;;6244195;22;20008;-91
2024/02/06 10:04:04;;;;;;;;;;;10.60;99.90;;;;;;6270468;22;20000;-92
2024/02/06 10:06:31;;;;;;;;;;;10.60;99.90;;;;;;6218259;22;20619;-94
2024/02/06 10:08:59;;;;;;;9.27;2.55;;;10.60;99.90;;;;;;6243853;22;19910;-92
2024/02/06 10:11:34;;;;;;;7.13;1.35;;;10.70;99.90;;;;;;6244114;22;20026;-93
2024/02/06 10:14:00;;;;;;;8.27;1.45;;;10.70;99.90;;;;;;6219043;22;20078;-93
2024/02/06 10:16:29;;;;;;;9.35;1.83;;;10.70;99.90;;;;;;6218608;22;20094;-88
2024/02/06 10:18:57;;;;;;;9.00;1.83;;;10.80;99.90;;;;;;6219016;22;20059;-93
2024/02/06 10:21:30;;;;;;;7.07;2.05;;;10.80;99.90;;;;;;6245052;22;20490;-93
2024/02/06 10:27:12;;;;;;;8.15;2.10;;;10.90;99.90;;;;;;6271046;22;20037;-93
2024/02/06 10:29:38;;;;;;;6.53;1.67;;;10.90;99.90;;;;;;6220371;22;20516;-95
2024/02/06 10:32:22;;;;;;;4.28;1.77;;;10.90;99.90;;;;;;6220005;22;20015;-94
2024/02/06 10:35:08;;;;;;;10.57;2.20;;;11.00;99.90;;;;;;6243503;22;20083;-94
2024/02/06 10:37:50;;;;;;;6.10;1.73;;;11.00;99.90;;;;;;6218921;22;20012;-95
2024/02/06 10:40:16;;;;;;;9.65;2.28;;;11.00;99.90;;;;;;6217864;22;20309;-90
2024/02/06 10:42:42;;;;;;;9.18;2.50;;;11.00;99.90;;;;;;6218287;22;20012;-90
2024/02/06 10:45:14;;;;;;;8.38;3.25;;;11.10;99.90;;;;;;6179309;22;20058;-91
2024/02/06 10:47:43;;;;;;;10.07;2.30;;;11.10;99.90;;;;;;6227790;22;20093;-90
2024/02/06 10:50:12;;;;;;;6.47;1.95;;;11.10;99.90;;;;;;6243283;22;20016;-89
2024/02/06 10:52:38;;;;;;;10.93;1.83;;;11.30;99.90;;;;;;6267308;22;20099;-91
2024/02/06 10:55:07;;;;;;;6.00;2.97;;;11.30;99.90;;;;;;6247207;22;20038;-90
2024/02/06 10:57:34;;;;;;;9.38;2.63;;;11.40;99.90;;;;;;6299510;22;20003;-88
2024/02/06 11:00:07;;;;;;;13.57;3.25;;;11.50;99.90;;;;;;6247317;22;20007;-90
2024/02/06 11:03:00;;;;;;;11.82;2.17;;;11.50;99.90;;;;;;6273076;22;20125;-91
2024/02/06 11:05:57;;;;;;;7.95;1.65;;;11.70;99.90;;;;;;6243800;22;20015;-91
2024/02/06 11:08:27;;;;;;;10.70;2.75;;;11.80;99.90;;;;;;6247467;22;20015;-89
2024/02/06 11:11:02;;;;;;;11.80;2.63;;;11.70;99.90;;;;;;6299363;22;20007;-86
2024/02/06 11:13:31;;;;;;;9.80;2.00;;;11.70;99.90;;;;;;6244738;22;20011;-88
2024/02/06 11:16:03;;;;;;;10.07;2.33;;;11.90;99.90;;;;;;6271466;22;20011;-87
2024/02/06 11:19:01;;;;;;;6.78;1.60;;;12.00;99.90;;;;;;6297673;22;20103;-87
2024/02/06 11:21:28;;;;;;;6.07;2.10;;;12.00;99.90;;;;;;6246422;22;20003;-87
2024/02/06 11:23:56;;;;;;;7.03;1.77;;;12.00;99.90;;;;;;6246327;22;20011;-87
2024/02/06 11:26:22;;;;;;;7.80;1.60;;;12.00;99.90;;;;;;6271276;22;20107;-86
2024/02/06 11:28:50;;;;;;;10.38;1.85;;;12.00;99.90;;;;;;6297317;22;20019;-88
2024/02/06 11:31:16;;;;;;;7.53;1.70;;;12.00;99.90;;;;;;6245933;22;20007;-88
2024/02/06 11:33:42;;;;;;;10.68;2.45;;;11.90;99.90;;;;;;6245850;22;20007;-86
2024/02/06 11:36:20;;;;;;;12.60;2.95;;;11.70;99.90;;;;;;6298227;22;20074;-87
2024/02/06 11:38:46;;;;;;;6.00;1.58;;;11.70;99.90;;;;;;6271205;22;20057;-88
2024/02/06 11:41:13;;;;;;;9.15;2.28;;;11.70;99.90;;;;;;6246049;22;20011;-86
2024/02/06 11:43:39;;;;;;;8.90;1.60;;;11.70;99.90;;;;;;6233367;22;20436;-88
2024/02/06 11:46:04;;;;;;;7.80;1.75;;;11.70;99.90;;;;;;6271533;22;20086;-89
2024/02/06 11:48:30;;;;;;;11.13;2.22;;;11.60;99.90;;;;;;6298510;22;20047;-88
2024/02/06 11:50:56;;;;;;;7.78;1.88;;;11.50;99.90;;;;;;6246312;22;20213;-87
2024/02/06 11:53:26;;;;;;;6.63;1.67;;;11.50;99.90;;;;;;6271744;22;20003;-87
2024/02/06 11:55:57;;;;;;;7.10;1.75;;;11.40;99.90;;;;;;6271674;22;20409;-88
2024/02/06 11:58:26;;;;;;;6.78;1.63;;;11.40;99.90;;;;;;6298748;22;20106;-86
2024/02/06 12:00:52;;;;;;;9.32;1.70;;;11.40;99.90;;;;;;6246514;22;20348;-89
2024/02/06 12:03:18;;;;;;;3.85;1.33;;;11.40;99.90;;;;;;6246036;22;20041;-87
2024/02/06 12:05:44;;;;;;;11.25;2.55;;;11.40;99.90;;;;;;6272539;22;20061;-86
2024/02/06 12:08:12;;;;;;;9.35;1.98;;;11.40;99.90;;;;;;6244421;22;20008;-87
2024/02/06 12:10:38;;;;;;;7.93;2.05;;;11.40;99.90;;;;;;6271058;22;20011;-87
2024/02/06 12:13:11;;;;;;;6.45;1.40;;;11.40;99.90;;;;;;6271597;22;20139;-88
2024/02/06 12:15:38;;;;;;;4.63;1.10;;;11.30;99.90;;;;;;6269939;22;20038;-88
2024/02/06 12:18:08;;;;;;;7.07;1.70;;;11.30;99.90;;;;;;6258388;22;20019;-85
2024/02/06 12:20:35;;;;;;;6.80;1.23;;;11.30;99.90;;;;;;6293850;22;20011;-87
2024/02/06 12:23:06;;;;;;;5.15;0.95;;;11.30;99.90;;;;;;6245401;22;20015;-86
2024/02/06 12:25:40;;;;;;;5.63;1.13;;;11.20;99.90;;;;;;6271316;22;20003;-88
2024/02/06 12:28:15;;;;;;;6.40;1.52;;;11.20;99.90;;;;;;6245465;22;20433;-86
2024/02/06 12:30:45;;;;;;;9.82;2.58;;;11.20;99.90;;;;;;6244754;22;20090;-88
2024/02/06 12:33:11;;;;;;;6.13;1.77;;;11.20;99.90;;;;;;6298791;22;20010;-88
2024/02/06 12:35:38;;;;;;;6.22;1.50;;;11.10;99.90;;;;;;6271482;22;20015;-87
2024/02/06 12:38:04;;;;;;;10.23;1.65;;;11.20;99.90;;;;;;6271619;22;20423;-87
2024/02/06 12:40:32;;;;;;;8.80;1.75;;;11.30;99.90;;;;;;6246291;22;20011;-87
2024/02/06 12:43:05;;;;;;;6.47;2.03;;;11.30;99.90;;;;;;6273089;22;20065;-88
2024/02/06 12:45:35;;;;;;;5.15;1.98;;;11.30;99.90;;;;;;6234685;22;20412;-87
2024/02/06 12:48:01;;;;;;;8.35;2.47;;;11.30;99.90;;;;;;6272990;22;20026;-87
2024/02/06 12:50:27;;;;;;;10.48;2.53;;;11.30;99.90;;;;;;6299173;22;20014;-89
2024/02/06 12:52:54;;;;;;;6.60;1.98;;;11.30;99.90;;;;;;6273565;22;20025;-88